sensor_id;sensor_type;location;lat;lon;timestamp;P1;durP1;ratioP1;P2;durP2;ratioP2
42036;SDS011;30340;52.004;5.908;2022-08-01T00:01:11;6.22;;;4.80;;
42036;SDS011;30340;52.004;5.908;2022-08-01T00:03:37;7.38;;;4.95;;
42036;SDS011;30340;52.004;5.908;2022-08-01T00:06:03;7.80;;;5.07;;
42036;SDS011;30340;52.004;5.908;2022-08-01T00:08:28;6.38;;;4.32;;
42036;SDS011;30340;52.004;5.908;2022-08-01T00:10:54;5.55;;;4.45;;
42036;SDS011;30340;52.004;5.908;2022-08-01T00:13:19;6.93;;;5.18;;
42036;SDS011;30340;52.004;5.908;2022-08-01T00:15:45;6.35;;;4.97;;
42036;SDS011;30340;52.004;5.908;2022-08-01T00:18:10;6.25;;;4.45;;
42036;SDS011;30340;52.004;5.908;2022-08-01T00:20:36;6.57;;;5.18;;
42036;SDS011;30340;52.004;5.908;2022-08-01T00:23:02;6.57;;;4.78;;
42036;SDS011;30340;52.004;5.908;2022-08-01T00:25:28;5.70;;;4.68;;
42036;SDS011;30340;52.004;5.908;2022-08-01T00:27:53;6.75;;;5.20;;
42036;SDS011;30340;52.004;5.908;2022-08-01T00:30:19;7.65;;;5.00;;
42036;SDS011;30340;52.004;5.908;2022-08-01T00:32:44;6.45;;;4.47;;
42036;SDS011;30340;52.004;5.908;2022-08-01T00:35:10;7.50;;;4.85;;
42036;SDS011;30340;52.004;5.908;2022-08-01T00:37:36;6.38;;;4.72;;
42036;SDS011;30340;52.004;5.908;2022-08-01T00:40:01;5.97;;;4.88;;
42036;SDS011;30340;52.004;5.908;2022-08-01T00:42:27;6.05;;;4.93;;
42036;SDS011;30340;52.004;5.908;2022-08-01T00:44:53;5.70;;;4.80;;
42036;SDS011;30340;52.004;5.908;2022-08-01T00:47:19;5.82;;;4.60;;
42036;SDS011;30340;52.004;5.908;2022-08-01T00:49:44;7.07;;;4.70;;
42036;SDS011;30340;52.004;5.908;2022-08-01T00:52:10;5.97;;;4.32;;
42036;SDS011;30340;52.004;5.908;2022-08-01T00:54:35;6.35;;;4.85;;
42036;SDS011;30340;52.004;5.908;2022-08-01T00:57:01;6.63;;;5.65;;
42036;SDS011;30340;52.004;5.908;2022-08-01T00:59:28;6.22;;;4.93;;
42036;SDS011;30340;52.004;5.908;2022-08-01T01:01:53;6.43;;;4.40;;
42036;SDS011;30340;52.004;5.908;2022-08-01T01:04:19;5.72;;;4.97;;
42036;SDS011;30340;52.004;5.908;2022-08-01T01:07:00;7.00;;;5.38;;
42036;SDS011;30340;52.004;5.908;2022-08-01T01:17:16;6.93;;;5.45;;
42036;SDS011;30340;52.004;5.908;2022-08-01T01:19:47;7.57;;;6.10;;
42036;SDS011;30340;52.004;5.908;2022-08-01T01:25:10;7.00;;;5.28;;
42036;SDS011;30340;52.004;5.908;2022-08-01T01:30:16;6.35;;;4.75;;
42036;SDS011;30340;52.004;5.908;2022-08-01T01:32:43;7.32;;;5.38;;
42036;SDS011;30340;52.004;5.908;2022-08-01T01:35:21;5.70;;;4.85;;
42036;SDS011;30340;52.004;5.908;2022-08-01T01:37:51;6.53;;;5.38;;
42036;SDS011;30340;52.004;5.908;2022-08-01T01:40:22;6.28;;;5.20;;
42036;SDS011;30340;52.004;5.908;2022-08-01T01:42:49;6.72;;;5.45;;
42036;SDS011;30340;52.004;5.908;2022-08-01T01:45:16;5.88;;;4.30;;
42036;SDS011;30340;52.004;5.908;2022-08-01T01:47:43;6.05;;;4.88;;
42036;SDS011;30340;52.004;5.908;2022-08-01T01:50:11;6.35;;;4.78;;
42036;SDS011;30340;52.004;5.908;2022-08-01T01:52:38;7.32;;;4.70;;
42036;SDS011;30340;52.004;5.908;2022-08-01T01:55:05;5.72;;;4.20;;
42036;SDS011;30340;52.004;5.908;2022-08-01T01:57:35;5.22;;;4.22;;
42036;SDS011;30340;52.004;5.908;2022-08-01T02:00:03;6.38;;;4.63;;
42036;SDS011;30340;52.004;5.908;2022-08-01T02:02:32;6.95;;;4.95;;
42036;SDS011;30340;52.004;5.908;2022-08-01T02:05:01;5.95;;;4.35;;
42036;SDS011;30340;52.004;5.908;2022-08-01T02:07:26;5.85;;;4.55;;
42036;SDS011;30340;52.004;5.908;2022-08-01T02:09:53;6.05;;;4.90;;
42036;SDS011;30340;52.004;5.908;2022-08-01T02:12:20;5.85;;;4.30;;
42036;SDS011;30340;52.004;5.908;2022-08-01T02:14:46;5.05;;;3.83;;
42036;SDS011;30340;52.004;5.908;2022-08-01T02:17:18;4.85;;;3.78;;
42036;SDS011;30340;52.004;5.908;2022-08-01T02:19:46;5.73;;;4.03;;
42036;SDS011;30340;52.004;5.908;2022-08-01T02:22:19;6.07;;;4.50;;
42036;SDS011;30340;52.004;5.908;2022-08-01T02:25:19;5.55;;;4.25;;
42036;SDS011;30340;52.004;5.908;2022-08-01T02:27:52;6.97;;;4.40;;
42036;SDS011;30340;52.004;5.908;2022-08-01T02:30:41;6.68;;;4.57;;
42036;SDS011;30340;52.004;5.908;2022-08-01T02:33:12;7.22;;;4.60;;
42036;SDS011;30340;52.004;5.908;2022-08-01T02:35:44;5.75;;;3.90;;
42036;SDS011;30340;52.004;5.908;2022-08-01T02:38:16;5.30;;;3.83;;
42036;SDS011;30340;52.004;5.908;2022-08-01T02:40:45;4.95;;;4.00;;
42036;SDS011;30340;52.004;5.908;2022-08-01T02:43:12;6.18;;;4.07;;
42036;SDS011;30340;52.004;5.908;2022-08-01T02:45:45;4.38;;;3.42;;
42036;SDS011;30340;52.004;5.908;2022-08-01T02:48:14;4.65;;;3.60;;
42036;SDS011;30340;52.004;5.908;2022-08-01T02:50:42;4.53;;;3.38;;
42036;SDS011;30340;52.004;5.908;2022-08-01T02:53:10;5.25;;;3.67;;
42036;SDS011;30340;52.004;5.908;2022-08-01T02:55:39;5.40;;;3.60;;
42036;SDS011;30340;52.004;5.908;2022-08-01T02:58:06;4.68;;;3.25;;
42036;SDS011;30340;52.004;5.908;2022-08-01T03:00:33;4.38;;;3.55;;
42036;SDS011;30340;52.004;5.908;2022-08-01T03:02:59;4.15;;;3.15;;
42036;SDS011;30340;52.004;5.908;2022-08-01T03:05:27;5.10;;;3.60;;
42036;SDS011;30340;52.004;5.908;2022-08-01T03:07:55;4.82;;;3.78;;
42036;SDS011;30340;52.004;5.908;2022-08-01T03:10:24;4.57;;;3.55;;
42036;SDS011;30340;52.004;5.908;2022-08-01T03:12:51;4.22;;;3.58;;
42036;SDS011;30340;52.004;5.908;2022-08-01T03:15:17;3.95;;;3.10;;
42036;SDS011;30340;52.004;5.908;2022-08-01T03:17:45;2.97;;;2.50;;
42036;SDS011;30340;52.004;5.908;2022-08-01T03:20:13;2.50;;;2.15;;
42036;SDS011;30340;52.004;5.908;2022-08-01T03:22:40;2.22;;;1.85;;
42036;SDS011;30340;52.004;5.908;2022-08-01T03:25:08;2.70;;;2.05;;
42036;SDS011;30340;52.004;5.908;2022-08-01T03:27:35;2.25;;;1.73;;
42036;SDS011;30340;52.004;5.908;2022-08-01T03:30:03;2.15;;;1.55;;
42036;SDS011;30340;52.004;5.908;2022-08-01T03:32:30;2.65;;;1.77;;
42036;SDS011;30340;52.004;5.908;2022-08-01T03:34:56;2.30;;;1.65;;
42036;SDS011;30340;52.004;5.908;2022-08-01T03:37:24;2.20;;;1.60;;
42036;SDS011;30340;52.004;5.908;2022-08-01T03:39:55;1.63;;;1.40;;
42036;SDS011;30340;52.004;5.908;2022-08-01T03:42:24;2.08;;;1.60;;
42036;SDS011;30340;52.004;5.908;2022-08-01T03:45:07;2.00;;;1.35;;
42036;SDS011;30340;52.004;5.908;2022-08-01T03:47:36;2.17;;;1.60;;
42036;SDS011;30340;52.004;5.908;2022-08-01T03:50:03;3.40;;;2.00;;
42036;SDS011;30340;52.004;5.908;2022-08-01T03:52:31;2.03;;;1.60;;
42036;SDS011;30340;52.004;5.908;2022-08-01T03:55:02;2.25;;;1.52;;
42036;SDS011;30340;52.004;5.908;2022-08-01T03:57:32;1.83;;;1.70;;
42036;SDS011;30340;52.004;5.908;2022-08-01T03:59:58;1.95;;;1.58;;
42036;SDS011;30340;52.004;5.908;2022-08-01T04:02:25;1.70;;;1.58;;
42036;SDS011;30340;52.004;5.908;2022-08-01T04:04:52;2.35;;;1.75;;
42036;SDS011;30340;52.004;5.908;2022-08-01T04:07:28;2.60;;;2.10;;
42036;SDS011;30340;52.004;5.908;2022-08-01T04:09:55;2.45;;;1.83;;
42036;SDS011;30340;52.004;5.908;2022-08-01T04:12:21;2.45;;;1.92;;
42036;SDS011;30340;52.004;5.908;2022-08-01T04:14:47;1.90;;;1.65;;
42036;SDS011;30340;52.004;5.908;2022-08-01T04:17:13;3.10;;;2.20;;
42036;SDS011;30340;52.004;5.908;2022-08-01T04:19:43;2.10;;;1.83;;
42036;SDS011;30340;52.004;5.908;2022-08-01T04:22:10;2.33;;;1.80;;
42036;SDS011;30340;52.004;5.908;2022-08-01T04:24:38;3.05;;;2.28;;
42036;SDS011;30340;52.004;5.908;2022-08-01T04:27:06;3.15;;;2.40;;
42036;SDS011;30340;52.004;5.908;2022-08-01T04:29:37;2.50;;;2.17;;
42036;SDS011;30340;52.004;5.908;2022-08-01T04:32:03;3.35;;;2.60;;
42036;SDS011;30340;52.004;5.908;2022-08-01T04:34:31;4.40;;;2.85;;
42036;SDS011;30340;52.004;5.908;2022-08-01T04:36:58;3.05;;;2.45;;
42036;SDS011;30340;52.004;5.908;2022-08-01T04:39:26;3.33;;;2.60;;
42036;SDS011;30340;52.004;5.908;2022-08-01T04:41:53;3.28;;;2.40;;
42036;SDS011;30340;52.004;5.908;2022-08-01T04:44:22;3.35;;;2.70;;
42036;SDS011;30340;52.004;5.908;2022-08-01T04:46:48;4.32;;;3.20;;
42036;SDS011;30340;52.004;5.908;2022-08-01T04:49:15;3.53;;;2.60;;
42036;SDS011;30340;52.004;5.908;2022-08-01T04:51:54;3.85;;;2.70;;
42036;SDS011;30340;52.004;5.908;2022-08-01T04:54:25;3.22;;;2.70;;
42036;SDS011;30340;52.004;5.908;2022-08-01T04:57:01;3.55;;;2.80;;
42036;SDS011;30340;52.004;5.908;2022-08-01T04:59:28;3.40;;;2.88;;
42036;SDS011;30340;52.004;5.908;2022-08-01T05:04:36;3.60;;;2.70;;
42036;SDS011;30340;52.004;5.908;2022-08-01T05:07:03;3.47;;;2.67;;
42036;SDS011;30340;52.004;5.908;2022-08-01T05:09:29;4.07;;;2.67;;
42036;SDS011;30340;52.004;5.908;2022-08-01T05:11:56;3.55;;;2.58;;
42036;SDS011;30340;52.004;5.908;2022-08-01T05:14:23;4.10;;;2.95;;
42036;SDS011;30340;52.004;5.908;2022-08-01T05:16:50;3.13;;;2.58;;
42036;SDS011;30340;52.004;5.908;2022-08-01T05:19:16;2.97;;;2.30;;
42036;SDS011;30340;52.004;5.908;2022-08-01T05:21:42;4.20;;;2.70;;
42036;SDS011;30340;52.004;5.908;2022-08-01T05:24:07;3.08;;;2.78;;
42036;SDS011;30340;52.004;5.908;2022-08-01T05:26:33;3.13;;;2.58;;
42036;SDS011;30340;52.004;5.908;2022-08-01T05:28:59;3.38;;;2.78;;
42036;SDS011;30340;52.004;5.908;2022-08-01T05:31:25;3.13;;;2.83;;
42036;SDS011;30340;52.004;5.908;2022-08-01T05:33:50;5.18;;;2.80;;
42036;SDS011;30340;52.004;5.908;2022-08-01T05:36:16;3.63;;;3.08;;
42036;SDS011;30340;52.004;5.908;2022-08-01T05:38:41;3.85;;;2.92;;
42036;SDS011;30340;52.004;5.908;2022-08-01T05:41:07;2.83;;;2.53;;
42036;SDS011;30340;52.004;5.908;2022-08-01T05:43:32;3.10;;;2.80;;
42036;SDS011;30340;52.004;5.908;2022-08-01T05:45:58;2.38;;;2.17;;
42036;SDS011;30340;52.004;5.908;2022-08-01T05:48:23;3.80;;;3.05;;
42036;SDS011;30340;52.004;5.908;2022-08-01T05:50:49;3.83;;;2.78;;
42036;SDS011;30340;52.004;5.908;2022-08-01T05:53:15;3.55;;;2.78;;
42036;SDS011;30340;52.004;5.908;2022-08-01T05:55:41;2.40;;;2.20;;
42036;SDS011;30340;52.004;5.908;2022-08-01T05:58:06;2.25;;;1.88;;
42036;SDS011;30340;52.004;5.908;2022-08-01T06:00:32;1.88;;;1.77;;
42036;SDS011;30340;52.004;5.908;2022-08-01T06:02:57;2.13;;;1.92;;
42036;SDS011;30340;52.004;5.908;2022-08-01T06:05:23;1.50;;;1.40;;
42036;SDS011;30340;52.004;5.908;2022-08-01T06:07:49;1.70;;;1.50;;
42036;SDS011;30340;52.004;5.908;2022-08-01T06:10:14;2.05;;;1.40;;
42036;SDS011;30340;52.004;5.908;2022-08-01T06:12:40;1.42;;;1.33;;
42036;SDS011;30340;52.004;5.908;2022-08-01T06:15:05;1.30;;;1.20;;
42036;SDS011;30340;52.004;5.908;2022-08-01T06:17:32;1.20;;;1.15;;
42036;SDS011;30340;52.004;5.908;2022-08-01T06:19:58;1.90;;;1.20;;
42036;SDS011;30340;52.004;5.908;2022-08-01T06:22:24;1.23;;;1.10;;
42036;SDS011;30340;52.004;5.908;2022-08-01T06:24:50;1.17;;;1.00;;
42036;SDS011;30340;52.004;5.908;2022-08-01T06:27:15;0.90;;;0.90;;
42036;SDS011;30340;52.004;5.908;2022-08-01T06:29:41;1.05;;;0.80;;
42036;SDS011;30340;52.004;5.908;2022-08-01T06:32:08;1.08;;;1.00;;
42036;SDS011;30340;52.004;5.908;2022-08-01T06:34:34;0.93;;;0.90;;
42036;SDS011;30340;52.004;5.908;2022-08-01T06:37:00;0.70;;;0.70;;
42036;SDS011;30340;52.004;5.908;2022-08-01T06:39:26;1.23;;;0.90;;
42036;SDS011;30340;52.004;5.908;2022-08-01T06:41:54;0.95;;;0.85;;
42036;SDS011;30340;52.004;5.908;2022-08-01T06:44:20;0.70;;;0.70;;
42036;SDS011;30340;52.004;5.908;2022-08-01T06:46:45;0.80;;;0.80;;
42036;SDS011;30340;52.004;5.908;2022-08-01T06:49:11;1.13;;;0.80;;
42036;SDS011;30340;52.004;5.908;2022-08-01T06:51:39;1.10;;;1.00;;
42036;SDS011;30340;52.004;5.908;2022-08-01T06:54:05;1.52;;;1.05;;
42036;SDS011;30340;52.004;5.908;2022-08-01T06:56:31;1.42;;;0.80;;
42036;SDS011;30340;52.004;5.908;2022-08-01T06:58:56;1.00;;;0.90;;
42036;SDS011;30340;52.004;5.908;2022-08-01T07:01:26;0.95;;;0.90;;
42036;SDS011;30340;52.004;5.908;2022-08-01T07:03:54;1.00;;;0.82;;
42036;SDS011;30340;52.004;5.908;2022-08-01T07:06:23;2.05;;;0.95;;
42036;SDS011;30340;52.004;5.908;2022-08-01T07:08:50;0.70;;;0.70;;
42036;SDS011;30340;52.004;5.908;2022-08-01T07:11:19;1.48;;;1.02;;
42036;SDS011;30340;52.004;5.908;2022-08-01T07:13:46;1.35;;;0.82;;
42036;SDS011;30340;52.004;5.908;2022-08-01T07:16:12;1.10;;;1.00;;
42036;SDS011;30340;52.004;5.908;2022-08-01T07:18:39;1.35;;;1.08;;
42036;SDS011;30340;52.004;5.908;2022-08-01T07:21:04;1.75;;;0.90;;
42036;SDS011;30340;52.004;5.908;2022-08-01T07:23:30;1.08;;;0.90;;
42036;SDS011;30340;52.004;5.908;2022-08-01T07:25:56;1.05;;;0.93;;
42036;SDS011;30340;52.004;5.908;2022-08-01T07:28:22;0.75;;;0.70;;
42036;SDS011;30340;52.004;5.908;2022-08-01T07:30:48;1.50;;;0.90;;
42036;SDS011;30340;52.004;5.908;2022-08-01T07:33:14;1.00;;;0.90;;
42036;SDS011;30340;52.004;5.908;2022-08-01T07:35:39;1.00;;;0.90;;
42036;SDS011;30340;52.004;5.908;2022-08-01T07:38:06;0.95;;;0.82;;
42036;SDS011;30340;52.004;5.908;2022-08-01T07:40:32;1.08;;;0.85;;
42036;SDS011;30340;52.004;5.908;2022-08-01T07:42:58;1.10;;;1.00;;
42036;SDS011;30340;52.004;5.908;2022-08-01T07:45:23;1.27;;;0.93;;
42036;SDS011;30340;52.004;5.908;2022-08-01T07:47:49;1.20;;;0.85;;
42036;SDS011;30340;52.004;5.908;2022-08-01T07:50:15;1.00;;;0.90;;
42036;SDS011;30340;52.004;5.908;2022-08-01T07:52:42;1.10;;;1.00;;
42036;SDS011;30340;52.004;5.908;2022-08-01T07:55:10;1.02;;;0.80;;
42036;SDS011;30340;52.004;5.908;2022-08-01T07:57:37;1.65;;;1.10;;
42036;SDS011;30340;52.004;5.908;2022-08-01T08:00:03;1.52;;;1.20;;
42036;SDS011;30340;52.004;5.908;2022-08-01T08:02:30;1.48;;;0.80;;
42036;SDS011;30340;52.004;5.908;2022-08-01T08:04:56;0.90;;;0.90;;
42036;SDS011;30340;52.004;5.908;2022-08-01T08:07:22;1.48;;;1.02;;
42036;SDS011;30340;52.004;5.908;2022-08-01T08:09:47;1.13;;;1.02;;
42036;SDS011;30340;52.004;5.908;2022-08-01T08:12:13;1.33;;;0.90;;
42036;SDS011;30340;52.004;5.908;2022-08-01T08:14:38;2.17;;;1.10;;
42036;SDS011;30340;52.004;5.908;2022-08-01T08:17:04;1.55;;;1.30;;
42036;SDS011;30340;52.004;5.908;2022-08-01T08:19:30;2.90;;;1.65;;
42036;SDS011;30340;52.004;5.908;2022-08-01T08:21:58;1.90;;;1.30;;
42036;SDS011;30340;52.004;5.908;2022-08-01T08:24:24;1.38;;;1.25;;
42036;SDS011;30340;52.004;5.908;2022-08-01T08:26:52;2.05;;;1.38;;
42036;SDS011;30340;52.004;5.908;2022-08-01T08:29:20;1.30;;;1.10;;
42036;SDS011;30340;52.004;5.908;2022-08-01T08:31:46;1.23;;;1.13;;
42036;SDS011;30340;52.004;5.908;2022-08-01T08:34:12;1.63;;;1.30;;
42036;SDS011;30340;52.004;5.908;2022-08-01T08:36:38;2.15;;;1.00;;
42036;SDS011;30340;52.004;5.908;2022-08-01T08:39:04;1.73;;;1.20;;
42036;SDS011;30340;52.004;5.908;2022-08-01T08:41:30;1.40;;;1.20;;
42036;SDS011;30340;52.004;5.908;2022-08-01T08:43:57;1.45;;;1.30;;
42036;SDS011;30340;52.004;5.908;2022-08-01T08:46:25;1.10;;;1.00;;
42036;SDS011;30340;52.004;5.908;2022-08-01T08:48:52;1.40;;;1.30;;
42036;SDS011;30340;52.004;5.908;2022-08-01T08:51:18;1.77;;;1.30;;
42036;SDS011;30340;52.004;5.908;2022-08-01T08:53:44;1.80;;;1.15;;
42036;SDS011;30340;52.004;5.908;2022-08-01T08:56:12;1.80;;;1.20;;
42036;SDS011;30340;52.004;5.908;2022-08-01T08:58:40;1.83;;;1.05;;
42036;SDS011;30340;52.004;5.908;2022-08-01T09:01:08;1.50;;;1.13;;
42036;SDS011;30340;52.004;5.908;2022-08-01T09:03:35;1.40;;;1.20;;
42036;SDS011;30340;52.004;5.908;2022-08-01T09:06:01;2.08;;;1.00;;
42036;SDS011;30340;52.004;5.908;2022-08-01T09:08:27;1.25;;;1.15;;
42036;SDS011;30340;52.004;5.908;2022-08-01T09:10:53;1.48;;;1.30;;
42036;SDS011;30340;52.004;5.908;2022-08-01T09:13:19;1.65;;;1.00;;
42036;SDS011;30340;52.004;5.908;2022-08-01T09:15:46;1.67;;;1.20;;
42036;SDS011;30340;52.004;5.908;2022-08-01T09:18:28;2.72;;;1.40;;
42036;SDS011;30340;52.004;5.908;2022-08-01T09:21:10;1.80;;;1.27;;
42036;SDS011;30340;52.004;5.908;2022-08-01T09:23:52;1.40;;;1.23;;
42036;SDS011;30340;52.004;5.908;2022-08-01T09:26:20;2.17;;;1.35;;
42036;SDS011;30340;52.004;5.908;2022-08-01T09:28:53;3.22;;;1.60;;
42036;SDS011;30340;52.004;5.908;2022-08-01T09:31:19;1.88;;;1.50;;
42036;SDS011;30340;52.004;5.908;2022-08-01T09:36:13;2.83;;;1.67;;
42036;SDS011;30340;52.004;5.908;2022-08-01T09:38:39;2.20;;;1.35;;
42036;SDS011;30340;52.004;5.908;2022-08-01T09:41:05;2.30;;;1.83;;
42036;SDS011;30340;52.004;5.908;2022-08-01T09:43:32;3.33;;;1.95;;
42036;SDS011;30340;52.004;5.908;2022-08-01T09:45:59;4.63;;;1.80;;
42036;SDS011;30340;52.004;5.908;2022-08-01T09:48:29;2.47;;;1.60;;
42036;SDS011;30340;52.004;5.908;2022-08-01T09:50:54;3.85;;;2.20;;
42036;SDS011;30340;52.004;5.908;2022-08-01T09:53:21;3.92;;;2.08;;
42036;SDS011;30340;52.004;5.908;2022-08-01T09:55:47;3.85;;;1.92;;
42036;SDS011;30340;52.004;5.908;2022-08-01T09:58:15;4.90;;;2.00;;
42036;SDS011;30340;52.004;5.908;2022-08-01T10:00:41;3.47;;;2.22;;
42036;SDS011;30340;52.004;5.908;2022-08-01T10:03:22;4.25;;;1.90;;
42036;SDS011;30340;52.004;5.908;2022-08-01T10:05:50;4.68;;;2.17;;
42036;SDS011;30340;52.004;5.908;2022-08-01T10:08:16;6.30;;;2.10;;
42036;SDS011;30340;52.004;5.908;2022-08-01T10:10:46;4.75;;;2.05;;
42036;SDS011;30340;52.004;5.908;2022-08-01T10:13:33;3.40;;;2.28;;
42036;SDS011;30340;52.004;5.908;2022-08-01T10:16:00;3.70;;;1.77;;
42036;SDS011;30340;52.004;5.908;2022-08-01T10:18:26;4.82;;;2.30;;
42036;SDS011;30340;52.004;5.908;2022-08-01T10:20:53;3.92;;;1.98;;
42036;SDS011;30340;52.004;5.908;2022-08-01T10:23:19;5.13;;;1.95;;
42036;SDS011;30340;52.004;5.908;2022-08-01T10:25:46;2.83;;;2.00;;
42036;SDS011;30340;52.004;5.908;2022-08-01T10:28:14;5.22;;;2.10;;
42036;SDS011;30340;52.004;5.908;2022-08-01T10:30:43;3.72;;;1.83;;
42036;SDS011;30340;52.004;5.908;2022-08-01T10:33:11;4.18;;;2.00;;
42036;SDS011;30340;52.004;5.908;2022-08-01T10:35:38;2.85;;;1.75;;
42036;SDS011;30340;52.004;5.908;2022-08-01T10:38:04;4.45;;;1.75;;
42036;SDS011;30340;52.004;5.908;2022-08-01T10:40:30;4.53;;;2.00;;
42036;SDS011;30340;52.004;5.908;2022-08-01T10:42:57;3.55;;;1.98;;
42036;SDS011;30340;52.004;5.908;2022-08-01T10:45:23;4.80;;;1.92;;
42036;SDS011;30340;52.004;5.908;2022-08-01T10:47:53;3.28;;;1.60;;
42036;SDS011;30340;52.004;5.908;2022-08-01T10:50:53;2.60;;;1.63;;
42036;SDS011;30340;52.004;5.908;2022-08-01T10:53:23;3.45;;;1.75;;
42036;SDS011;30340;52.004;5.908;2022-08-01T11:04:28;3.03;;;1.80;;
42036;SDS011;30340;52.004;5.908;2022-08-01T11:09:00;3.65;;;1.60;;
42036;SDS011;30340;52.004;5.908;2022-08-01T11:14:27;4.00;;;1.92;;
42036;SDS011;30340;52.004;5.908;2022-08-01T11:16:52;3.53;;;1.80;;
42036;SDS011;30340;52.004;5.908;2022-08-01T11:19:18;2.90;;;1.55;;
42036;SDS011;30340;52.004;5.908;2022-08-01T11:29:41;3.30;;;1.95;;
42036;SDS011;30340;52.004;5.908;2022-08-01T11:32:28;6.80;;;2.40;;
42036;SDS011;30340;52.004;5.908;2022-08-01T11:34:53;3.22;;;1.70;;
42036;SDS011;30340;52.004;5.908;2022-08-01T11:37:24;4.55;;;1.80;;
42036;SDS011;30340;52.004;5.908;2022-08-01T11:42:41;4.15;;;1.70;;
42036;SDS011;30340;52.004;5.908;2022-08-01T11:45:07;3.15;;;1.58;;
42036;SDS011;30340;52.004;5.908;2022-08-01T11:47:49;3.05;;;1.55;;
42036;SDS011;30340;52.004;5.908;2022-08-01T11:53:02;4.22;;;1.55;;
42036;SDS011;30340;52.004;5.908;2022-08-01T11:55:32;3.33;;;1.73;;
42036;SDS011;30340;52.004;5.908;2022-08-01T11:58:00;3.45;;;1.52;;
42036;SDS011;30340;52.004;5.908;2022-08-01T12:00:28;3.33;;;1.38;;
42036;SDS011;30340;52.004;5.908;2022-08-01T12:03:02;3.28;;;1.42;;
42036;SDS011;30340;52.004;5.908;2022-08-01T12:05:29;2.22;;;1.40;;
42036;SDS011;30340;52.004;5.908;2022-08-01T12:07:58;4.85;;;1.90;;
42036;SDS011;30340;52.004;5.908;2022-08-01T12:10:26;2.65;;;1.33;;
42036;SDS011;30340;52.004;5.908;2022-08-01T12:12:55;3.50;;;1.50;;
42036;SDS011;30340;52.004;5.908;2022-08-01T12:15:24;2.53;;;1.30;;
42036;SDS011;30340;52.004;5.908;2022-08-01T12:17:58;1.58;;;1.05;;
42036;SDS011;30340;52.004;5.908;2022-08-01T12:20:26;2.00;;;1.20;;
42036;SDS011;30340;52.004;5.908;2022-08-01T12:22:54;3.33;;;1.40;;
42036;SDS011;30340;52.004;5.908;2022-08-01T12:25:21;2.97;;;1.27;;
42036;SDS011;30340;52.004;5.908;2022-08-01T12:27:47;2.90;;;1.35;;
42036;SDS011;30340;52.004;5.908;2022-08-01T12:30:15;2.92;;;1.17;;
42036;SDS011;30340;52.004;5.908;2022-08-01T12:32:43;6.15;;;1.50;;
42036;SDS011;30340;52.004;5.908;2022-08-01T12:35:12;3.38;;;1.30;;
42036;SDS011;30340;52.004;5.908;2022-08-01T12:37:40;4.97;;;1.50;;
42036;SDS011;30340;52.004;5.908;2022-08-01T12:40:30;3.33;;;1.38;;
42036;SDS011;30340;52.004;5.908;2022-08-01T12:43:00;2.15;;;1.05;;
42036;SDS011;30340;52.004;5.908;2022-08-01T12:45:38;4.95;;;1.30;;
42036;SDS011;30340;52.004;5.908;2022-08-01T12:48:08;3.53;;;1.20;;
42036;SDS011;30340;52.004;5.908;2022-08-01T12:50:36;2.53;;;1.10;;
42036;SDS011;30340;52.004;5.908;2022-08-01T12:53:03;2.33;;;1.20;;
42036;SDS011;30340;52.004;5.908;2022-08-01T12:55:29;3.08;;;1.27;;
42036;SDS011;30340;52.004;5.908;2022-08-01T12:58:05;2.67;;;1.17;;
42036;SDS011;30340;52.004;5.908;2022-08-01T13:00:35;3.88;;;1.25;;
42036;SDS011;30340;52.004;5.908;2022-08-01T13:03:09;3.28;;;1.30;;
42036;SDS011;30340;52.004;5.908;2022-08-01T13:05:48;2.03;;;1.05;;
42036;SDS011;30340;52.004;5.908;2022-08-01T13:08:16;2.03;;;1.20;;
42036;SDS011;30340;52.004;5.908;2022-08-01T13:10:42;3.38;;;1.30;;
42036;SDS011;30340;52.004;5.908;2022-08-01T13:13:08;2.97;;;1.20;;
42036;SDS011;30340;52.004;5.908;2022-08-01T13:15:36;2.97;;;1.15;;
42036;SDS011;30340;52.004;5.908;2022-08-01T13:23:40;2.85;;;1.23;;
42036;SDS011;30340;52.004;5.908;2022-08-01T13:26:07;4.15;;;1.33;;
42036;SDS011;30340;52.004;5.908;2022-08-01T13:28:33;5.63;;;1.40;;
42036;SDS011;30340;52.004;5.908;2022-08-01T13:31:05;4.10;;;1.40;;
42036;SDS011;30340;52.004;5.908;2022-08-01T13:33:42;3.58;;;1.33;;
42036;SDS011;30340;52.004;5.908;2022-08-01T13:36:10;4.03;;;1.48;;
42036;SDS011;30340;52.004;5.908;2022-08-01T13:38:36;3.58;;;1.40;;
42036;SDS011;30340;52.004;5.908;2022-08-01T13:41:20;2.72;;;1.00;;
42036;SDS011;30340;52.004;5.908;2022-08-01T13:43:45;2.28;;;1.08;;
42036;SDS011;30340;52.004;5.908;2022-08-01T13:46:11;3.45;;;1.30;;
42036;SDS011;30340;52.004;5.908;2022-08-01T13:48:36;2.03;;;1.02;;
42036;SDS011;30340;52.004;5.908;2022-08-01T13:51:02;2.67;;;0.90;;
42036;SDS011;30340;52.004;5.908;2022-08-01T13:53:27;3.10;;;1.15;;
42036;SDS011;30340;52.004;5.908;2022-08-01T13:55:53;3.40;;;1.20;;
42036;SDS011;30340;52.004;5.908;2022-08-01T13:58:19;2.63;;;1.10;;
42036;SDS011;30340;52.004;5.908;2022-08-01T14:00:45;2.78;;;1.10;;
42036;SDS011;30340;52.004;5.908;2022-08-01T14:03:11;1.80;;;1.10;;
42036;SDS011;30340;52.004;5.908;2022-08-01T14:05:37;2.47;;;1.00;;
42036;SDS011;30340;52.004;5.908;2022-08-01T14:08:02;3.33;;;1.17;;
42036;SDS011;30340;52.004;5.908;2022-08-01T14:10:28;2.25;;;1.20;;
42036;SDS011;30340;52.004;5.908;2022-08-01T14:12:57;2.88;;;1.20;;
42036;SDS011;30340;52.004;5.908;2022-08-01T14:15:23;2.55;;;1.00;;
42036;SDS011;30340;52.004;5.908;2022-08-01T14:17:49;2.53;;;1.17;;
42036;SDS011;30340;52.004;5.908;2022-08-01T14:20:15;2.40;;;1.00;;
42036;SDS011;30340;52.004;5.908;2022-08-01T14:22:44;2.90;;;1.13;;
42036;SDS011;30340;52.004;5.908;2022-08-01T14:25:12;4.03;;;1.30;;
42036;SDS011;30340;52.004;5.908;2022-08-01T14:27:38;1.88;;;0.93;;
42036;SDS011;30340;52.004;5.908;2022-08-01T14:30:06;3.20;;;1.10;;
42036;SDS011;30340;52.004;5.908;2022-08-01T14:32:32;2.83;;;1.20;;
42036;SDS011;30340;52.004;5.908;2022-08-01T14:35:01;2.28;;;0.90;;
42036;SDS011;30340;52.004;5.908;2022-08-01T14:37:28;2.00;;;0.88;;
42036;SDS011;30340;52.004;5.908;2022-08-01T14:39:54;2.33;;;0.90;;
42036;SDS011;30340;52.004;5.908;2022-08-01T14:42:20;2.03;;;1.05;;
42036;SDS011;30340;52.004;5.908;2022-08-01T14:44:46;2.33;;;1.00;;
42036;SDS011;30340;52.004;5.908;2022-08-01T14:47:11;1.98;;;0.70;;
42036;SDS011;30340;52.004;5.908;2022-08-01T14:49:37;2.03;;;0.77;;
42036;SDS011;30340;52.004;5.908;2022-08-01T14:52:02;3.10;;;1.02;;
42036;SDS011;30340;52.004;5.908;2022-08-01T14:54:31;2.33;;;0.70;;
42036;SDS011;30340;52.004;5.908;2022-08-01T14:56:59;1.85;;;0.82;;
42036;SDS011;30340;52.004;5.908;2022-08-01T14:59:25;1.05;;;0.70;;
42036;SDS011;30340;52.004;5.908;2022-08-01T15:01:50;1.58;;;0.90;;
42036;SDS011;30340;52.004;5.908;2022-08-01T15:04:16;1.95;;;0.95;;
42036;SDS011;30340;52.004;5.908;2022-08-01T15:06:42;2.33;;;0.90;;
42036;SDS011;30340;52.004;5.908;2022-08-01T15:09:09;2.40;;;0.88;;
42036;SDS011;30340;52.004;5.908;2022-08-01T15:11:35;2.20;;;0.77;;
42036;SDS011;30340;52.004;5.908;2022-08-01T15:14:01;1.33;;;0.77;;
42036;SDS011;30340;52.004;5.908;2022-08-01T15:16:45;1.27;;;0.75;;
42036;SDS011;30340;52.004;5.908;2022-08-01T15:19:10;1.55;;;0.80;;
42036;SDS011;30340;52.004;5.908;2022-08-01T15:21:36;4.63;;;1.15;;
42036;SDS011;30340;52.004;5.908;2022-08-01T15:24:01;1.20;;;0.70;;
42036;SDS011;30340;52.004;5.908;2022-08-01T15:26:27;1.25;;;0.70;;
42036;SDS011;30340;52.004;5.908;2022-08-01T15:28:54;2.05;;;0.80;;
42036;SDS011;30340;52.004;5.908;2022-08-01T15:31:20;0.88;;;0.60;;
42036;SDS011;30340;52.004;5.908;2022-08-01T15:33:45;1.05;;;0.80;;
42036;SDS011;30340;52.004;5.908;2022-08-01T15:36:11;1.63;;;0.85;;
42036;SDS011;30340;52.004;5.908;2022-08-01T15:38:36;2.67;;;0.80;;
42036;SDS011;30340;52.004;5.908;2022-08-01T15:41:02;0.93;;;0.80;;
42036;SDS011;30340;52.004;5.908;2022-08-01T15:43:27;1.52;;;0.75;;